Hillsborough, North Carolina
Current Conditions -  °F | °C
As of 5:56 PM on Tuesday 25 Nov 2014 (Local Time) from KIGX Reporting Station
Broken Clouds Broken Clouds  
Wind Chill: 53°   Ceiling: 9000
Heat Index: 53°   Visibility: 10mi
Dew Point: 42°   Wind: 3mph
Humidity: 66%   Direction: 50°NE
Pressure: 30.07"   Gusts: NA
Location:  36.08°N, 79.1°W
Report Text: KIGX 252256Z AUTO 05003KT 10SM FEW030 SCT050 BKN090 12/06 A3007 RMK AO2 RAB46E55 SLP179 P0000 T01170056
Loading
Personal Weather Stations






























Interactive Weather Map New forecast layout! Learn more

10-Day Weather Forecast

Advertisements
Track Severe Weather on mobile